Time;durP1;ratioP1;P1;durP2;ratioP2;P2;SDS_P1;SDS_P2;PMS_P1;PMS_P2;Temp;Humidity;BMP_temperature;BMP_pressure;BME280_temperature;BME280_humidity;BME280_pressure;Samples;Min_cycle;Max_cycle;Signal;HPM_P1;HPM_P2
2023/05/24 00:00:03;;;;;;;11.10;6.50;;;;;;;;;;1675587;29;10302331;-93
2023/05/24 00:01:06;;;;;;;11.07;6.50;;;;;;;;;;2033630;29;20024;-92
2023/05/24 00:02:07;;;;;;;8.65;6.60;;;;;;;;;;2032913;29;20020;-91
2023/05/24 00:03:08;;;;;;;12.32;6.35;;;;;;;;;;2025392;29;20020;-92
2023/05/24 00:04:09;;;;;;;8.20;6.63;;;;;;;;;;2025477;29;20117;-93
2023/05/24 00:05:10;;;;;;;9.60;6.72;;;;;;;;;;2025085;29;20040;-93
2023/05/24 00:06:13;;;;;;;10.60;6.32;;;;;;;;;;2025070;29;20136;-92
2023/05/24 00:07:15;;;;;;;9.07;6.20;;;;;;;;;;2024826;29;20413;-94
2023/05/24 00:08:15;;;;;;;10.82;6.85;;;;;;;;;;2017638;29;20347;-91
2023/05/24 00:09:16;;;;;;;9.27;6.82;;;;;;;;;;2017323;29;20028;-92
2023/05/24 00:10:16;;;;;;;9.68;6.55;;;;;;;;;;2025089;29;20037;-92
2023/05/24 00:11:18;;;;;;;11.25;6.88;;;;;;;;;;2032339;29;20398;-92
2023/05/24 00:12:19;;;;;;;7.57;6.35;;;;;;;;;;2033142;29;20062;-91
2023/05/24 00:13:19;;;;;;;10.05;7.03;;;;;;;;;;2024890;29;20048;-91
2023/05/24 00:14:20;;;;;;;7.88;6.47;;;;;;;;;;2025303;29;20054;-93
2023/05/24 00:15:20;;;;;;;11.35;7.00;;;;;;;;;;2024975;29;20096;-91
2023/05/24 00:16:21;;;;;;;9.35;6.43;;;;;;;;;;2025266;29;20029;-92
2023/05/24 00:17:21;;;;;;;8.63;6.97;;;;;;;;;;2024943;29;20035;-91
2023/05/24 00:18:22;;;;;;;11.13;6.65;;;;;;;;;;2032981;29;20024;-92
2023/05/24 00:19:22;;;;;;;9.68;7.72;;;;;;;;;;2041106;29;20024;-92
2023/05/24 00:20:23;;;;;;;9.82;6.75;;;;;;;;;;2025292;29;20048;-92
2023/05/24 00:21:23;;;;;;;11.05;7.35;;;;;;;;;;2017640;29;20032;-91
2023/05/24 00:22:24;;;;;;;10.85;7.60;;;;;;;;;;2025179;29;20024;-91
2023/05/24 00:23:27;;;;;;;14.10;7.43;;;;;;;;;;2033807;29;20099;-91
2023/05/24 00:24:28;;;;;;;16.00;7.78;;;;;;;;;;2033930;29;20024;-92
2023/05/24 00:25:29;;;;;;;9.77;7.10;;;;;;;;;;2025716;29;20147;-91
2023/05/24 00:26:30;;;;;;;9.85;7.30;;;;;;;;;;2025321;29;20457;-91
2023/05/24 00:27:31;;;;;;;9.32;7.00;;;;;;;;;;2017600;29;20028;-92
2023/05/24 00:28:33;;;;;;;9.52;7.35;;;;;;;;;;2025811;29;20048;-92
2023/05/24 00:29:35;;;;;;;8.60;6.50;;;;;;;;;;2033888;29;20039;-91
2023/05/24 00:30:38;;;;;;;8.80;6.40;;;;;;;;;;2026713;29;20036;-91
2023/05/24 00:31:39;;;;;;;10.05;6.70;;;;;;;;;;2025304;29;20068;-93
2023/05/24 00:32:39;;;;;;;12.40;7.40;;;;;;;;;;2025474;29;20032;-92
2023/05/24 00:33:40;;;;;;;10.23;6.90;;;;;;;;;;2030813;29;20013;-91
2023/05/24 00:34:40;;;;;;;11.27;7.53;;;;;;;;;;2035321;29;20013;-91
2023/05/24 00:35:41;;;;;;;12.75;7.75;;;;;;;;;;2035510;29;20032;-91
2023/05/24 00:36:42;;;;;;;10.18;7.60;;;;;;;;;;2043605;29;20062;-92
2023/05/24 00:37:44;;;;;;;11.38;7.15;;;;;;;;;;2043820;29;20023;-90
2023/05/24 00:38:44;;;;;;;11.38;7.47;;;;;;;;;;2034558;29;20036;-91
2023/05/24 00:39:48;;;;;;;8.95;7.28;;;;;;;;;;2027241;29;20059;-94
2023/05/24 00:40:49;;;;;;;9.52;7.32;;;;;;;;;;2034018;29;20031;-92
2023/05/24 00:41:49;;;;;;;9.30;7.00;;;;;;;;;;2034387;29;20036;-93
2023/05/24 00:42:50;;;;;;;10.48;7.53;;;;;;;;;;2034005;29;20071;-93
2023/05/24 00:43:50;;;;;;;10.05;7.57;;;;;;;;;;2025373;29;20116;-92
2023/05/24 00:44:51;;;;;;;9.27;7.63;;;;;;;;;;2025647;29;20035;-91
2023/05/24 00:46:21;;;;;;;10.13;6.97;;;;;;;;;;2025566;29;20123;-93
2023/05/24 00:47:21;;;;;;;9.85;7.38;;;;;;;;;;2021584;29;20033;-92
2023/05/24 00:48:26;;;;;;;13.52;8.48;;;;;;;;;;2032984;29;20110;-95
2023/05/24 00:49:30;;;;;;;12.07;8.57;;;;;;;;;;2032676;29;20571;-93
2023/05/24 00:50:30;;;;;;;10.98;7.97;;;;;;;;;;2025256;29;20028;-93
2023/05/24 00:51:32;;;;;;;12.10;8.82;;;;;;;;;;2017979;29;20048;-93
2023/05/24 00:52:33;;;;;;;11.13;7.28;;;;;;;;;;2023293;29;20066;-93
2023/05/24 00:53:36;;;;;;;11.35;8.15;;;;;;;;;;2024068;29;20100;-93
2023/05/24 00:54:39;;;;;;;13.52;7.43;;;;;;;;;;2035307;29;20025;-94
2023/05/24 00:55:40;;;;;;;10.55;7.75;;;;;;;;;;2035444;29;20021;-94
2023/05/24 00:56:42;;;;;;;11.57;7.47;;;;;;;;;;2035302;29;20180;-93
2023/05/24 00:57:43;;;;;;;11.43;7.15;;;;;;;;;;2034271;29;20089;-93
2023/05/24 00:58:44;;;;;;;14.18;7.75;;;;;;;;;;2026401;29;20092;-94
2023/05/24 00:59:45;;;;;;;9.95;7.18;;;;;;;;;;2025957;29;20109;-93
2023/05/24 01:00:48;;;;;;;13.13;7.57;;;;;;;;;;2025352;29;20544;-92
2023/05/24 01:01:49;;;;;;;11.00;8.02;;;;;;;;;;2025499;29;20540;-93
2023/05/24 01:02:50;;;;;;;11.52;7.47;;;;;;;;;;2033544;29;20028;-93
2023/05/24 01:03:53;;;;;;;11.25;7.60;;;;;;;;;;2025114;29;20058;-92
2023/05/24 01:04:55;;;;;;;14.68;8.10;;;;;;;;;;2024970;29;20036;-93
2023/05/24 01:06:00;;;;;;;9.18;7.57;;;;;;;;;;2017628;29;20065;-92
2023/05/24 01:07:26;;;;;;;11.07;7.88;;;;;;;;;;2018289;29;20033;-94
2023/05/24 01:08:39;;;;;;;11.05;7.85;;;;;;;;;;2028767;29;20028;-93
2023/05/24 01:09:53;;;;;;;11.65;7.90;;;;;;;;;;2033832;29;20516;-93
2023/05/24 01:11:03;;;;;;;10.85;7.82;;;;;;;;;;2024904;29;20032;-94
2023/05/24 01:12:19;;;;;;;11.25;7.75;;;;;;;;;;1681836;29;10003069;-93
2023/05/24 01:13:43;;;;;;;10.32;7.40;;;;;;;;;;2027027;29;20107;-92
2023/05/24 01:15:18;;;;;;;11.45;7.43;;;;;;;;;;2024666;29;20056;-92
2023/05/24 01:16:45;;;;;;;9.93;7.18;;;;;;;;;;1993516;29;20047;-92
2023/05/24 01:18:00;;;;;;;9.98;7.05;;;;;;;;;;2033558;29;20555;-93
2023/05/24 01:19:10;;;;;;;10.27;7.07;;;;;;;;;;2025139;29;20503;-93
2023/05/24 01:20:13;;;;;;;10.77;7.63;;;;;;;;;;2025020;29;20544;-92
2023/05/24 01:21:37;;;;;;;10.68;7.93;;;;;;;;;;2025222;29;20441;-92
2023/05/24 01:22:47;;;;;;;13.00;7.68;;;;;;;;;;2026706;29;20115;-93
2023/05/24 01:24:18;;;;;;;9.50;6.90;;;;;;;;;;2026397;29;20028;-94
2023/05/24 01:25:31;;;;;;;12.80;8.15;;;;;;;;;;2024938;29;20036;-94
2023/05/24 01:27:05;;;;;;;9.63;7.10;;;;;;;;;;2026817;29;20059;-92
2023/05/24 01:28:08;;;;;;;10.00;7.55;;;;;;;;;;2025087;29;20035;-92
2023/05/24 01:29:09;;;;;;;11.07;7.55;;;;;;;;;;2025367;29;20037;-94
2023/05/24 01:30:10;;;;;;;11.55;8.25;;;;;;;;;;2025006;29;20489;-92
2023/05/24 01:31:13;;;;;;;12.88;8.07;;;;;;;;;;2017354;29;20028;-93
2023/05/24 01:32:13;;;;;;;10.18;7.00;;;;;;;;;;2017257;29;20029;-92
2023/05/24 01:33:14;;;;;;;11.95;8.32;;;;;;;;;;2017219;29;20542;-93
2023/05/24 01:34:14;;;;;;;12.55;8.20;;;;;;;;;;2017134;29;20052;-93
2023/05/24 01:35:15;;;;;;;13.02;8.05;;;;;;;;;;2017395;29;20108;-93
2023/05/24 01:36:15;;;;;;;9.70;7.75;;;;;;;;;;2025292;29;20029;-93
2023/05/24 01:37:16;;;;;;;12.82;8.43;;;;;;;;;;2025019;29;20028;-94
2023/05/24 01:38:16;;;;;;;11.77;7.47;;;;;;;;;;2025182;29;20488;-93
2023/05/24 01:39:18;;;;;;;13.13;7.43;;;;;;;;;;2017311;29;20466;-94
2023/05/24 01:40:19;;;;;;;12.00;7.53;;;;;;;;;;2025660;29;20024;-94
2023/05/24 01:41:28;;;;;;;15.88;8.32;;;;;;;;;;2015009;29;20123;-94
2023/05/24 01:42:40;;;;;;;12.07;7.60;;;;;;;;;;2026377;29;20086;-92
2023/05/24 01:44:06;;;;;;;10.63;7.47;;;;;;;;;;2025031;29;20036;-93
2023/05/24 01:45:06;;;;;;;9.63;7.55;;;;;;;;;;2018341;29;20036;-92
2023/05/24 01:46:36;;;;;;;11.52;8.05;;;;;;;;;;2024900;29;20060;-94
2023/05/24 01:48:00;;;;;;;11.55;8.15;;;;;;;;;;2028926;29;20046;-94
2023/05/24 01:49:10;;;;;;;12.23;7.85;;;;;;;;;;2024879;29;20032;-94
2023/05/24 01:50:20;;;;;;;12.68;8.23;;;;;;;;;;2018195;29;20021;-94
2023/05/24 01:51:23;;;;;;;12.23;6.82;;;;;;;;;;2018401;29;20025;-93
2023/05/24 01:52:30;;;;;;;12.85;7.00;;;;;;;;;;2024936;29;20020;-93
2023/05/24 01:53:37;;;;;;;10.70;7.53;;;;;;;;;;2024823;29;20040;-93
2023/05/24 01:54:49;;;;;;;13.07;8.15;;;;;;;;;;2024581;29;20174;-94
2023/05/24 01:55:52;;;;;;;11.10;7.15;;;;;;;;;;2024711;29;20024;-93
2023/05/24 01:56:54;;;;;;;11.10;7.85;;;;;;;;;;2017213;29;20116;-93
2023/05/24 01:58:00;;;;;;;11.70;6.97;;;;;;;;;;2024832;29;20148;-93
2023/05/24 01:59:02;;;;;;;10.68;7.28;;;;;;;;;;2032518;29;20490;-94
2023/05/24 02:00:04;;;;;;;9.77;7.13;;;;;;;;;;2032645;29;20381;-93
2023/05/24 02:01:05;;;;;;;9.95;7.43;;;;;;;;;;2033166;29;20059;-95
2023/05/24 02:02:05;;;;;;;13.00;7.72;;;;;;;;;;2024630;29;20473;-93
2023/05/24 02:03:06;;;;;;;9.48;7.22;;;;;;;;;;2024697;29;20044;-93
2023/05/24 02:04:06;;;;;;;13.75;7.68;;;;;;;;;;2017215;29;20474;-94
2023/05/24 02:05:09;;;;;;;11.52;7.97;;;;;;;;;;2016907;29;20021;-95
2023/05/24 02:06:09;;;;;;;11.80;7.95;;;;;;;;;;2025013;29;20017;-95
2023/05/24 02:07:10;;;;;;;11.27;7.90;;;;;;;;;;2024716;29;20115;-93
2023/05/24 02:08:11;;;;;;;12.07;7.50;;;;;;;;;;2017044;29;20514;-93
2023/05/24 02:09:12;;;;;;;10.63;7.38;;;;;;;;;;2017239;29;20028;-94
2023/05/24 02:10:12;;;;;;;13.68;7.75;;;;;;;;;;2024787;29;20578;-93
2023/05/24 02:11:13;;;;;;;12.85;8.25;;;;;;;;;;2033119;29;20103;-94
2023/05/24 02:12:14;;;;;;;12.60;7.18;;;;;;;;;;2024403;29;20017;-94
2023/05/24 02:13:16;;;;;;;10.52;7.07;;;;;;;;;;2024694;29;20472;-94
2023/05/24 02:14:18;;;;;;;10.20;7.65;;;;;;;;;;2036890;29;20026;-92
2023/05/24 02:15:19;;;;;;;12.32;7.80;;;;;;;;;;2025830;29;20052;-94
2023/05/24 02:16:22;;;;;;;11.43;7.45;;;;;;;;;;2024684;29;20470;-94
2023/05/24 02:17:25;;;;;;;12.43;8.25;;;;;;;;;;2017183;29;20036;-94
2023/05/24 02:18:26;;;;;;;12.07;8.55;;;;;;;;;;2017215;29;20021;-94
2023/05/24 02:19:26;;;;;;;10.52;8.25;;;;;;;;;;2016933;29;20132;-94
2023/05/24 02:20:29;;;;;;;15.32;7.40;;;;;;;;;;2016925;29;20092;-94
2023/05/24 02:21:31;;;;;;;9.55;7.25;;;;;;;;;;2017195;29;20029;-94
2023/05/24 02:22:31;;;;;;;10.50;7.40;;;;;;;;;;2024585;29;20025;-94
2023/05/24 02:23:32;;;;;;;11.40;7.63;;;;;;;;;;2024556;29;20120;-94
2023/05/24 02:24:32;;;;;;;9.65;7.47;;;;;;;;;;2016827;29;20527;-94
2023/05/24 02:25:33;;;;;;;9.82;7.10;;;;;;;;;;2016820;29;20452;-94
2023/05/24 02:26:33;;;;;;;12.30;7.72;;;;;;;;;;2024541;29;20032;-94
2023/05/24 02:27:34;;;;;;;13.60;7.20;;;;;;;;;;2024533;29;20505;-93
2023/05/24 02:28:34;;;;;;;14.45;7.57;;;;;;;;;;2024474;29;20028;-93
2023/05/24 02:29:35;;;;;;;14.43;7.35;;;;;;;;;;2016775;29;20025;-93
2023/05/24 02:30:37;;;;;;;11.55;7.40;;;;;;;;;;2016538;29;20354;-93
2023/05/24 02:31:40;;;;;;;11.15;7.60;;;;;;;;;;2024825;29;20020;-94
2023/05/24 02:32:40;;;;;;;11.65;7.10;;;;;;;;;;2032369;29;20076;-94
2023/05/24 02:33:41;;;;;;;13.35;7.18;;;;;;;;;;2024378;29;20024;-93
2023/05/24 02:34:41;;;;;;;14.73;8.02;;;;;;;;;;2033364;29;20110;-94
2023/05/24 02:35:42;;;;;;;11.65;8.05;;;;;;;;;;2034562;29;20036;-94
2023/05/24 02:36:44;;;;;;;14.07;7.75;;;;;;;;;;2026288;29;20414;-91
2023/05/24 02:37:45;;;;;;;12.68;7.43;;;;;;;;;;1684901;29;10093045;-92
2023/05/24 02:38:46;;;;;;;16.38;8.30;;;;;;;;;;2034375;29;20476;-92
2023/05/24 02:39:47;;;;;;;13.63;7.88;;;;;;;;;;2034206;29;20154;-91
2023/05/24 02:40:47;;;;;;;14.10;8.05;;;;;;;;;;2026246;29;20572;-92
2023/05/24 02:41:50;;;;;;;10.90;7.32;;;;;;;;;;2026163;29;20442;-93
2023/05/24 02:42:50;;;;;;;13.38;7.85;;;;;;;;;;1681306;29;9999888;-93
2023/05/24 02:43:51;;;;;;;8.95;7.53;;;;;;;;;;2026882;29;20033;-93
2023/05/24 02:44:52;;;;;;;12.07;7.93;;;;;;;;;;2028899;29;20039;-91
2023/05/24 02:45:52;;;;;;;14.32;8.55;;;;;;;;;;2022228;29;20104;-91
2023/05/24 02:46:53;;;;;;;10.98;7.43;;;;;;;;;;2014300;29;20040;-91
2023/05/24 02:47:55;;;;;;;11.13;8.63;;;;;;;;;;2023495;29;20044;-91
2023/05/24 02:48:58;;;;;;;12.35;8.65;;;;;;;;;;2018984;29;20048;-94
2023/05/24 02:49:58;;;;;;;13.57;8.45;;;;;;;;;;2026414;29;20029;-93
2023/05/24 02:51:02;;;;;;;15.02;9.43;;;;;;;;;;2025781;29;20044;-92
2023/05/24 02:52:02;;;;;;;13.05;8.93;;;;;;;;;;2034761;29;20032;-94
2023/05/24 02:53:03;;;;;;;13.02;8.93;;;;;;;;;;2026247;29;20040;-93
2023/05/24 02:54:03;;;;;;;12.15;8.45;;;;;;;;;;2018178;29;20036;-94
2023/05/24 02:55:06;;;;;;;13.18;8.82;;;;;;;;;;2026356;29;20060;-93
2023/05/24 02:56:07;;;;;;;12.63;8.80;;;;;;;;;;2026250;29;20068;-94
2023/05/24 02:57:08;;;;;;;14.80;8.77;;;;;;;;;;2025760;29;20120;-94
2023/05/24 02:58:08;;;;;;;11.27;8.90;;;;;;;;;;2034179;29;20035;-93
2023/05/24 02:59:10;;;;;;;15.10;8.40;;;;;;;;;;2025945;29;20032;-93
2023/05/24 03:00:11;;;;;;;14.48;8.57;;;;;;;;;;2025997;29;20477;-92
2023/05/24 03:01:11;;;;;;;11.50;8.07;;;;;;;;;;2025969;29;20080;-93
2023/05/24 03:02:16;;;;;;;13.35;8.57;;;;;;;;;;2025987;29;20373;-92
2023/05/24 03:03:17;;;;;;;12.30;8.45;;;;;;;;;;2026089;29;20089;-93
2023/05/24 03:04:17;;;;;;;14.85;8.43;;;;;;;;;;2029649;29;20132;-92
2023/05/24 03:05:18;;;;;;;11.15;8.15;;;;;;;;;;2036132;29;20032;-93
2023/05/24 03:06:18;;;;;;;10.65;8.15;;;;;;;;;;2036438;29;20012;-95
2023/05/24 03:07:19;;;;;;;12.05;8.18;;;;;;;;;;2036194;29;20044;-93
2023/05/24 03:08:19;;;;;;;14.40;7.82;;;;;;;;;;2034970;29;20051;-93
2023/05/24 03:09:20;;;;;;;14.15;7.65;;;;;;;;;;2044210;29;20031;-92
2023/05/24 03:10:20;;;;;;;13.20;8.02;;;;;;;;;;2029072;29;20098;-92
2023/05/24 03:11:22;;;;;;;10.63;7.50;;;;;;;;;;2028784;29;20024;-93
2023/05/24 03:12:22;;;;;;;10.40;7.88;;;;;;;;;;2028731;29;20024;-92
2023/05/24 03:13:23;;;;;;;11.75;7.82;;;;;;;;;;2026386;29;20033;-93
2023/05/24 03:14:23;;;;;;;11.32;7.88;;;;;;;;;;2026119;29;20051;-92
2023/05/24 03:15:24;;;;;;;11.15;7.68;;;;;;;;;;2033689;29;20024;-92
2023/05/24 03:16:24;;;;;;;12.93;7.15;;;;;;;;;;1689415;29;10156419;-92
2023/05/24 03:17:25;;;;;;;14.32;7.25;;;;;;;;;;2018286;29;20504;-91
2023/05/24 03:18:25;;;;;;;13.52;7.88;;;;;;;;;;2025769;29;20119;-93
2023/05/24 03:19:26;;;;;;;10.77;7.75;;;;;;;;;;2026157;29;20031;-93
2023/05/24 03:20:27;;;;;;;11.85;7.93;;;;;;;;;;2025780;29;20032;-92
2023/05/24 03:21:27;;;;;;;10.98;8.07;;;;;;;;;;2018222;29;20467;-94
2023/05/24 03:22:27;;;;;;;11.75;7.95;;;;;;;;;;2025897;29;20025;-94
2023/05/24 03:23:28;;;;;;;9.88;7.32;;;;;;;;;;2025343;29;20017;-93
2023/05/24 03:24:28;;;;;;;16.10;10.00;;;;;;;;;;2043885;29;20096;-93
2023/05/24 03:25:29;;;;;;;13.70;7.80;;;;;;;;;;2042811;29;20122;-95
2023/05/24 03:26:30;;;;;;;12.15;7.82;;;;;;;;;;2027110;29;20059;-94
2023/05/24 03:27:32;;;;;;;11.55;7.72;;;;;;;;;;2035235;29;20109;-95
2023/05/24 03:28:32;;;;;;;11.80;7.40;;;;;;;;;;2032156;29;20039;-94
2023/05/24 03:29:33;;;;;;;9.15;6.72;;;;;;;;;;2027205;29;20092;-94
2023/05/24 03:30:33;;;;;;;8.57;7.00;;;;;;;;;;2026707;29;20048;-94
2023/05/24 03:31:34;;;;;;;9.77;6.85;;;;;;;;;;2034434;29;20024;-94
2023/05/24 03:32:34;;;;;;;8.65;6.70;;;;;;;;;;2026646;29;20099;-94
2023/05/24 03:33:35;;;;;;;8.80;6.68;;;;;;;;;;2034243;29;20054;-94
2023/05/24 03:34:35;;;;;;;8.27;6.85;;;;;;;;;;2033853;29;20067;-94
2023/05/24 03:35:36;;;;;;;11.93;7.63;;;;;;;;;;2026125;29;20028;-95
2023/05/24 03:36:36;;;;;;;11.32;7.43;;;;;;;;;;2034612;29;20048;-95
2023/05/24 03:37:37;;;;;;;11.20;7.60;;;;;;;;;;2034504;29;20032;-94
2023/05/24 03:38:38;;;;;;;9.85;6.70;;;;;;;;;;2034405;29;20035;-92
2023/05/24 03:39:41;;;;;;;8.40;6.43;;;;;;;;;;2035032;29;20597;-92
2023/05/24 03:40:44;;;;;;;9.77;6.82;;;;;;;;;;2019299;29;20043;-95
2023/05/24 03:41:45;;;;;;;8.05;6.82;;;;;;;;;;2011445;29;20490;-94
2023/05/24 03:42:45;;;;;;;10.40;6.47;;;;;;;;;;2026387;29;20032;-96
2023/05/24 03:43:46;;;;;;;10.02;7.20;;;;;;;;;;2026225;29;20032;-94
2023/05/24 03:44:49;;;;;;;10.07;7.72;;;;;;;;;;1775878;29;10343503;-95
2023/05/24 03:45:50;;;;;;;10.23;7.32;;;;;;;;;;2032349;29;20288;-93
2023/05/24 03:46:51;;;;;;;10.55;7.68;;;;;;;;;;2025521;29;20501;-96
2023/05/24 03:47:52;;;;;;;9.93;7.40;;;;;;;;;;2025648;29;20069;-92
2023/05/24 03:48:52;;;;;;;12.02;7.68;;;;;;;;;;2025658;29;20119;-92
2023/05/24 03:49:53;;;;;;;15.77;8.15;;;;;;;;;;2025546;29;20108;-93
2023/05/24 03:50:53;;;;;;;11.65;7.60;;;;;;;;;;2017622;29;20056;-93
2023/05/24 03:51:54;;;;;;;10.20;7.65;;;;;;;;;;2017591;29;20512;-93
2023/05/24 03:52:54;;;;;;;11.63;7.35;;;;;;;;;;2025528;29;20382;-92
2023/05/24 03:53:58;;;;;;;12.48;6.75;;;;;;;;;;2025701;29;20104;-93
2023/05/24 03:54:58;;;;;;;9.43;6.93;;;;;;;;;;2025565;29;20580;-93
2023/05/24 03:55:59;;;;;;;8.93;6.50;;;;;;;;;;2018056;29;20032;-94
2023/05/24 03:57:00;;;;;;;9.20;6.28;;;;;;;;;;2017893;29;20036;-92
2023/05/24 03:58:01;;;;;;;11.25;6.50;;;;;;;;;;2026637;29;20029;-91
2023/05/24 03:59:02;;;;;;;8.48;6.97;;;;;;;;;;2035529;29;20118;-93
2023/05/24 04:00:06;;;;;;;8.20;6.57;;;;;;;;;;2033926;29;20039;-93
2023/05/24 04:01:06;;;;;;;8.55;6.22;;;;;;;;;;2025606;29;20048;-92
2023/05/24 04:02:09;;;;;;;11.88;6.40;;;;;;;;;;2025271;29;20048;-93
2023/05/24 04:03:11;;;;;;;10.82;6.15;;;;;;;;;;2025312;29;20048;-93
2023/05/24 04:04:11;;;;;;;9.93;5.85;;;;;;;;;;2025180;29;20064;-92
2023/05/24 04:05:13;;;;;;;12.57;7.03;;;;;;;;;;2033451;29;20083;-92
2023/05/24 04:06:13;;;;;;;8.20;6.47;;;;;;;;;;2024875;29;20358;-93
2023/05/24 04:07:15;;;;;;;8.20;6.50;;;;;;;;;;2024769;29;20024;-93
2023/05/24 04:08:16;;;;;;;9.75;7.10;;;;;;;;;;2025060;29;20029;-93
2023/05/24 04:09:17;;;;;;;11.75;6.97;;;;;;;;;;1684650;29;10275755;-92
2023/05/24 04:10:17;;;;;;;9.55;6.97;;;;;;;;;;2024812;29;20435;-92
2023/05/24 04:11:19;;;;;;;9.80;7.03;;;;;;;;;;2024753;29;20442;-92
2023/05/24 04:12:19;;;;;;;9.00;6.72;;;;;;;;;;2024688;29;20016;-92
2023/05/24 04:13:21;;;;;;;10.13;6.22;;;;;;;;;;2017178;29;20061;-94
2023/05/24 04:14:21;;;;;;;7.57;6.38;;;;;;;;;;2017624;29;20037;-92
2023/05/24 04:15:22;;;;;;;9.32;6.70;;;;;;;;;;2017567;29;20047;-92
2023/05/24 04:16:24;;;;;;;9.75;6.68;;;;;;;;;;2024820;29;20040;-91
2023/05/24 04:17:26;;;;;;;9.75;6.88;;;;;;;;;;2024885;29;20031;-91
2023/05/24 04:18:27;;;;;;;10.90;6.70;;;;;;;;;;2025029;29;20024;-93
2023/05/24 04:19:27;;;;;;;9.13;7.22;;;;;;;;;;2024786;29;20028;-91
2023/05/24 04:20:31;;;;;;;7.82;7.05;;;;;;;;;;1791691;29;10306220;-94
2023/05/24 04:21:33;;;;;;;9.15;6.90;;;;;;;;;;2024783;29;20873;-92
2023/05/24 04:22:35;;;;;;;10.60;7.15;;;;;;;;;;2024621;29;20032;-91
2023/05/24 04:23:35;;;;;;;11.18;6.57;;;;;;;;;;2024736;29;20493;-92
2023/05/24 04:24:36;;;;;;;11.20;6.90;;;;;;;;;;2024952;29;20032;-92
2023/05/24 04:25:36;;;;;;;11.23;6.40;;;;;;;;;;2025230;29;20029;-93
2023/05/24 04:26:37;;;;;;;9.32;6.45;;;;;;;;;;2017714;29;20029;-93
2023/05/24 04:27:37;;;;;;;10.93;6.63;;;;;;;;;;2025642;29;20028;-93
2023/05/24 04:28:38;;;;;;;8.27;6.45;;;;;;;;;;2025552;29;20060;-92
2023/05/24 04:29:40;;;;;;;9.95;5.88;;;;;;;;;;2026208;29;20126;-92
2023/05/24 04:30:41;;;;;;;9.20;6.18;;;;;;;;;;2017914;29;20029;-93
2023/05/24 04:31:43;;;;;;;7.38;5.57;;;;;;;;;;2017547;29;20036;-92
2023/05/24 04:32:44;;;;;;;8.60;5.75;;;;;;;;;;2017733;29;20129;-92
2023/05/24 04:33:44;;;;;;;7.85;4.97;;;;;;;;;;2026379;29;20028;-93
2023/05/24 04:34:45;;;;;;;10.82;5.68;;;;;;;;;;2026084;29;20515;-91
2023/05/24 04:35:46;;;;;;;7.55;5.28;;;;;;;;;;2029334;29;20032;-91
2023/05/24 04:36:48;;;;;;;6.93;5.13;;;;;;;;;;2028013;29;20057;-91
2023/05/24 04:37:49;;;;;;;6.28;4.93;;;;;;;;;;2026525;29;20029;-93
2023/05/24 04:38:52;;;;;;;7.15;4.85;;;;;;;;;;1680858;29;10392815;-92
2023/05/24 04:39:52;;;;;;;9.98;5.35;;;;;;;;;;2033957;29;20117;-94
2023/05/24 04:40:53;;;;;;;5.70;4.22;;;;;;;;;;2033649;29;20040;-93
2023/05/24 04:42:12;;;;;;;7.23;4.24;;;;;;;;;;1966228;29;10001281;-95
2023/05/24 04:43:13;;;;;;;8.50;5.00;;;;;;;;;;1015846;29;10003051;-94
2023/05/24 04:44:16;;;;;;;7.18;4.85;;;;;;;;;;2025278;29;20120;-94
2023/05/24 04:45:16;;;;;;;5.80;4.68;;;;;;;;;;2025424;29;20024;-93
2023/05/24 04:46:17;;;;;;;6.00;5.10;;;;;;;;;;2033621;29;20031;-93
2023/05/24 04:47:18;;;;;;;8.88;5.50;;;;;;;;;;1686275;29;10000913;-93
2023/05/24 04:48:19;;;;;;;6.80;5.25;;;;;;;;;;2017567;29;20112;-93
2023/05/24 04:49:21;;;;;;;10.38;5.30;;;;;;;;;;2019642;29;20553;-94
2023/05/24 04:50:22;;;;;;;8.13;4.70;;;;;;;;;;2029406;29;20047;-91
2023/05/24 04:51:23;;;;;;;11.43;4.35;;;;;;;;;;2025929;29;20023;-95
2023/05/24 04:52:23;;;;;;;7.50;4.85;;;;;;;;;;2018024;29;20354;-94
2023/05/24 04:53:24;;;;;;;7.53;4.55;;;;;;;;;;2018043;29;20021;-92
2023/05/24 04:54:26;;;;;;;8.88;5.13;;;;;;;;;;2025031;29;20051;-94
2023/05/24 04:55:26;;;;;;;8.15;4.50;;;;;;;;;;2024951;29;20048;-92
2023/05/24 04:56:27;;;;;;;6.97;5.10;;;;;;;;;;2025096;29;20094;-94
2023/05/24 04:57:27;;;;;;;11.00;5.30;;;;;;;;;;2032203;29;20052;-93
2023/05/24 04:58:28;;;;;;;10.57;5.50;;;;;;;;;;2025056;29;20056;-93
2023/05/24 04:59:28;;;;;;;5.80;4.55;;;;;;;;;;2033036;29;20024;-93
2023/05/24 05:00:29;;;;;;;6.30;4.68;;;;;;;;;;2040858;29;20059;-93
2023/05/24 05:01:33;;;;;;;7.22;4.97;;;;;;;;;;2024838;29;20417;-93
2023/05/24 05:02:33;;;;;;;11.02;5.40;;;;;;;;;;2026240;29;20506;-93
2023/05/24 05:03:34;;;;;;;7.32;4.88;;;;;;;;;;2033934;29;20138;-94
2023/05/24 05:04:34;;;;;;;6.53;4.57;;;;;;;;;;2025755;29;20115;-92
2023/05/24 05:05:37;;;;;;;10.40;5.85;;;;;;;;;;2017446;29;20104;-95
2023/05/24 05:06:39;;;;;;;8.68;5.45;;;;;;;;;;2025716;29;20021;-95
2023/05/24 05:07:40;;;;;;;9.35;5.40;;;;;;;;;;2025250;29;20111;-93
2023/05/24 05:08:40;;;;;;;10.15;5.00;;;;;;;;;;2025361;29;20100;-95
2023/05/24 05:09:41;;;;;;;6.55;4.97;;;;;;;;;;2033541;29;20032;-96
2023/05/24 05:10:41;;;;;;;6.95;4.85;;;;;;;;;;2025254;29;20021;-94
2023/05/24 05:11:42;;;;;;;6.82;4.53;;;;;;;;;;2025054;29;20028;-93
2023/05/24 05:12:43;;;;;;;6.72;4.35;;;;;;;;;;2024656;29;20082;-95
2023/05/24 05:13:44;;;;;;;6.43;4.45;;;;;;;;;;2025126;29;20128;-93
2023/05/24 05:14:44;;;;;;;8.18;5.05;;;;;;;;;;2024954;29;20465;-94
2023/05/24 05:15:45;;;;;;;6.70;4.68;;;;;;;;;;2017254;29;20032;-92
2023/05/24 05:16:45;;;;;;;8.07;5.07;;;;;;;;;;2017301;29;20041;-95
2023/05/24 05:17:48;;;;;;;8.23;5.95;;;;;;;;;;2017359;29;20511;-94
2023/05/24 05:18:48;;;;;;;8.32;5.60;;;;;;;;;;2017500;29;20394;-93
2023/05/24 05:19:49;;;;;;;10.63;5.65;;;;;;;;;;2024703;29;20024;-94
2023/05/24 05:20:50;;;;;;;7.10;5.65;;;;;;;;;;2025091;29;20020;-93
2023/05/24 05:21:51;;;;;;;7.43;5.68;;;;;;;;;;2032581;29;20417;-93
2023/05/24 05:22:51;;;;;;;10.13;6.03;;;;;;;;;;2033598;29;20119;-93
2023/05/24 05:23:53;;;;;;;9.60;6.85;;;;;;;;;;2024707;29;20031;-94
2023/05/24 05:24:53;;;;;;;10.77;6.03;;;;;;;;;;2025167;29;20120;-94
2023/05/24 05:25:54;;;;;;;9.18;5.85;;;;;;;;;;2033929;29;20103;-93
2023/05/24 05:26:54;;;;;;;8.60;5.95;;;;;;;;;;2033140;29;20024;-93
2023/05/24 05:27:55;;;;;;;8.10;5.63;;;;;;;;;;2024681;29;20401;-93
2023/05/24 05:28:58;;;;;;;8.32;5.97;;;;;;;;;;2024880;29;20021;-93
2023/05/24 05:29:58;;;;;;;10.55;5.95;;;;;;;;;;2017834;29;20462;-93
2023/05/24 05:30:59;;;;;;;8.80;6.35;;;;;;;;;;2025162;29;20020;-95
2023/05/24 05:32:00;;;;;;;7.53;6.07;;;;;;;;;;2025038;29;20127;-93
2023/05/24 05:33:00;;;;;;;6.43;5.45;;;;;;;;;;2025469;29;20032;-95
2023/05/24 05:34:08;;;;;;;8.75;5.88;;;;;;;;;;2025573;29;20425;-94
2023/05/24 05:35:09;;;;;;;7.75;5.00;;;;;;;;;;2027252;29;20045;-94
2023/05/24 05:36:11;;;;;;;6.38;5.70;;;;;;;;;;2035067;29;20017;-94
2023/05/24 05:39:31;;;;;;;5.95;4.82;;;;;;;;;;1708890;28;10190693;-93
2023/05/24 05:40:32;;;;;;;7.47;4.90;;;;;;;;;;2053731;29;20086;-94
2023/05/24 05:41:32;;;;;;;6.97;5.28;;;;;;;;;;2052931;28;20030;-91
2023/05/24 05:42:36;;;;;;;6.28;5.47;;;;;;;;;;2051730;29;20027;-94
2023/05/24 05:43:37;;;;;;;9.57;5.05;;;;;;;;;;1679795;28;10813459;-93
2023/05/24 05:44:38;;;;;;;6.50;4.60;;;;;;;;;;2048156;29;20114;-95
2023/05/24 05:45:39;;;;;;;7.72;4.43;;;;;;;;;;2040414;29;20047;-95
2023/05/24 05:46:42;;;;;;;4.82;4.28;;;;;;;;;;2048992;29;20019;-94
2023/05/24 05:49:45;;;;;;;7.78;4.97;;;;;;;;;;2036086;28;20028;-96
2023/05/24 05:50:55;;;;;;;6.97;4.80;;;;;;;;;;2049876;29;20110;-94
2023/05/24 05:51:56;;;;;;;;;;;;;;;;;;2052112;29;20050;-96
2023/05/24 05:53:08;;;;;;;10.88;4.40;;;;;;;;;;2049480;29;20013;-95
2023/05/24 05:55:21;;;;;;;6.43;4.63;;;;;;;;;;2052241;23;20066;-94
2023/05/24 05:56:22;;;;;;;6.18;4.40;;;;;;;;;;2051215;29;20016;-94
2023/05/24 05:57:23;;;;;;;5.32;3.83;;;;;;;;;;2049933;29;20043;-95
2023/05/24 05:58:23;;;;;;;6.18;4.30;;;;;;;;;;2049241;29;20012;-95
2023/05/24 05:59:23;;;;;;;5.68;4.57;;;;;;;;;;2045078;29;20099;-96
2023/05/24 06:00:26;;;;;;;5.10;4.07;;;;;;;;;;2041619;29;20024;-95
2023/05/24 06:01:27;;;;;;;7.50;4.35;;;;;;;;;;2033525;29;20118;-94
2023/05/24 06:02:27;;;;;;;6.65;5.13;;;;;;;;;;2041518;29;20468;-94
2023/05/24 06:03:28;;;;;;;7.50;4.18;;;;;;;;;;2043396;29;20039;-95
2023/05/24 06:13:47;;;;;;;7.28;4.50;;;;;;;;;;2029927;29;20044;-90
2023/05/24 06:15:00;;;;;;;5.57;4.68;;;;;;;;;;2031869;29;20032;-89
2023/05/24 06:16:00;;;;;;;6.32;4.45;;;;;;;;;;2022735;29;20036;-89
2023/05/24 06:17:01;;;;;;;4.95;4.20;;;;;;;;;;2023136;29;20062;-90
2023/05/24 06:18:01;;;;;;;5.78;4.22;;;;;;;;;;2031637;29;20032;-90
2023/05/24 06:19:02;;;;;;;7.53;4.15;;;;;;;;;;2022866;29;20024;-90
2023/05/24 06:20:07;;;;;;;5.40;4.35;;;;;;;;;;2023136;29;20305;-91
2023/05/24 06:21:09;;;;;;;4.57;3.80;;;;;;;;;;1683701;29;10276108;-90
2023/05/24 06:22:11;;;;;;;5.85;4.05;;;;;;;;;;2032260;29;20115;-90
2023/05/24 06:23:12;;;;;;;6.85;4.30;;;;;;;;;;2023281;29;20469;-90
2023/05/24 06:24:20;;;;;;;5.82;3.95;;;;;;;;;;2015229;29;20044;-89
2023/05/24 06:25:21;;;;;;;5.63;3.97;;;;;;;;;;2024197;29;20031;-90